This is the latest recevied weather packets stored in our database for station/object MB7UWV-13. If no packets are shown the sender has not sent any weather packets the latest 1 day(s).
| Time | Temp. | Humidity | Pressure | Rain* | Wind** | Luminosity | Snow |
|---|---|---|---|---|---|---|---|
| 1777992505 | 11.11° C | 72% | 1001.7 hPa | 0 mm | 0 m/s | - | - |
| 1777991606 | 11.67° C | 70% | 1001.7 hPa | 0 mm | 0 m/s | - | - |
| 1777990706 | 13.33° C | 59% | 1001.7 hPa | 0 mm | 1.34 m/s, 334° | - | - |
| 1777989805 | 13.89° C | 55% | 1001.4 hPa | 0 mm | 1.79 m/s, 278° | - | - |
| 1777988905 | 12.22° C | 58% | 1001.4 hPa | 0 mm | 0.89 m/s, 300° | - | - |
| 1777988005 | 12.22° C | 58% | 1001.7 hPa | 0 mm | 0.89 m/s, 313° | - | - |
| 1777987106 | 12.78° C | 60% | 1001.7 hPa | 0 mm | 0.45 m/s, 313° | - | - |
| 1777986206 | 13.33° C | 56% | 1001.7 hPa | 0 mm | 1.79 m/s, 259° | - | - |
| 1777985307 | 12.78° C | 63% | 1001.7 hPa | 0 mm | 0 m/s | - | - |
| 1777984405 | 12.78° C | 63% | 1002 hPa | 0 mm | 0 m/s | - | - |
| 1777983506 | 12.22° C | 67% | 1002 hPa | 0 mm | 0 m/s | - | - |
| 1777982606 | 12.22° C | 66% | 1002 hPa | 0 mm | 0.45 m/s, 218° | - | - |
| 1777981705 | 11.67° C | 65% | 1002 hPa | 0 mm | 0 m/s | - | - |
| 1777980806 | 11.67° C | 65% | 1002 hPa | 0 mm | 1.34 m/s, 317° | - | - |
| 1777979905 | 11.11° C | 66% | 1002 hPa | 0 mm | 1.79 m/s, 304° | - | - |
| 1777979005 | 11.11° C | 68% | 1002 hPa | 0 mm | 1.34 m/s, 321° | - | - |
| 1777978105 | 11.11° C | 68% | 1002 hPa | 0 mm | 1.34 m/s, 305° | - | - |
| 1777977205 | 10.56° C | 67% | 1002 hPa | 0 mm | 0.45 m/s, 304° | - | - |
| 1777976305 | 11.11° C | 69% | 1002.4 hPa | 0 mm | 0 m/s | - | - |
| 1777975405 | 11.11° C | 70% | 1002 hPa | 0 mm | 0.45 m/s, 328° | - | - |
| 1777974506 | 10.56° C | 73% | 1002 hPa | 0 mm | 0.45 m/s, 323° | - | - |
* Rain latest hour (hover to see other rain measurements)
** Current wind speed in m/s (hover to see current wind gust speed)